CheckWX is a tool to help pilots better visualize weather data.  It is not intended as a substitute for an official pre-flight weather briefing.

20:26:37 UTC

C35 METAR
Reedsburg Municipal Airport
Reedsburg, Wisconsin, USA
Current

12 mins ago

KC35 202015Z AUTO 27004KT 10SM CLR 19/M05 A2983 RMK AO2 T01881048
Observed
Apr-20 @ 20:15 UTC
Wind
  • 270° at 4 KTS
Visibility
10 SM
Flight Rules
VFR
Cloud Levels
  • Clear skies
Temperature
19°C / 66°F
Dewpoint
-5°C / 23°F
Humidity
19%
Altimeter
29.83" Hg
Pressure
1010.12 hPa
Previous

32 mins ago

KC35 201955Z AUTO 27008KT 10SM CLR 19/M04 A2984 RMK AO2 T01901045
Observed
Apr-20 @ 19:55 UTC
Wind
  • 270° at 8 KTS
Visibility
10 SM
Flight Rules
VFR
Cloud Levels
  • Clear skies
Temperature
19°C / 66°F
Dewpoint
-5°C / 23°F
Humidity
19%
Altimeter
29.84" Hg
Pressure
1010.52 hPa
Previous

52 mins ago

KC35 201935Z AUTO 03004KT 10SM CLR 18/M06 A2984 RMK AO2 T01831057
Observed
Apr-20 @ 19:35 UTC
Wind
  • 030° at 4 KTS
Visibility
10 SM
Flight Rules
VFR
Cloud Levels
  • Clear skies
Temperature
18°C / 64°F
Dewpoint
-6°C / 21°F
Humidity
19%
Altimeter
29.84" Hg
Pressure
1010.52 hPa